Time;durP1;ratioP1;P1;durP2;ratioP2;P2;SDS_P1;SDS_P2;PMS_P1;PMS_P2;Temp;Humidity;BMP_temperature;BMP_pressure;BME280_temperature;BME280_humidity;BME280_pressure;Samples;Min_cycle;Max_cycle;Signal;HPM_P1;HPM_P2
2021/07/26 00:01:03;;;;;;;6.50;4.80;;;17.20;99.90;;;;;;5030409;28;20385;-79
2021/07/26 00:03:29;;;;;;;7.47;4.63;;;17.20;99.90;;;;;;5035718;28;20378;-75
2021/07/26 00:05:59;;;;;;;9.23;4.50;;;17.20;99.90;;;;;;5031779;28;20638;-75
2021/07/26 00:08:25;;;;;;;7.60;4.97;;;17.20;99.90;;;;;;5034160;28;20184;-76
2021/07/26 00:10:59;;;;;;;6.00;4.60;;;17.20;99.90;;;;;;5035654;28;20462;-75
2021/07/26 00:13:35;;;;;;;8.60;4.57;;;17.20;99.90;;;;;;5036486;28;20435;-75
2021/07/26 00:16:02;;;;;;;8.97;4.60;;;17.20;99.90;;;;;;5019524;28;20416;-75
2021/07/26 00:18:52;;;;;;;9.13;4.87;;;17.10;99.90;;;;;;5018740;28;20471;-79
2021/07/26 00:21:46;;;;;;;7.33;4.90;;;17.10;99.90;;;;;;5031779;28;21110;-79
2021/07/26 00:24:29;;;;;;;7.50;4.67;;;17.10;99.90;;;;;;5036254;28;20366;-79
2021/07/26 00:30:18;;;;;;;5.27;4.07;;;17.00;99.90;;;;;;5016319;28;20363;-79
2021/07/26 00:36:30;;;;;;;9.60;5.10;;;17.00;99.90;;;;;;5035946;28;20369;-79
2021/07/26 00:43:04;;;;;;;8.40;5.10;;;17.00;99.90;;;;;;5023059;28;20407;-79
2021/07/26 00:49:01;;;;;;;7.60;4.90;;;16.90;99.90;;;;;;5026018;28;20447;-76
2021/07/26 00:51:27;;;;;;;7.63;5.23;;;16.90;99.90;;;;;;5020302;28;20407;-76
2021/07/26 00:53:53;;;;;;;8.50;5.50;;;16.90;99.90;;;;;;5031849;28;20446;-75
2021/07/26 00:56:19;;;;;;;7.13;4.73;;;16.90;99.90;;;;;;5020010;28;20765;-76
2021/07/26 00:58:47;;;;;;;6.13;5.10;;;16.90;99.90;;;;;;5015942;28;20390;-75
2021/07/26 01:01:17;;;;;;;7.43;5.00;;;17.00;99.90;;;;;;5016093;28;20415;-76
2021/07/26 01:04:04;;;;;;;13.47;5.60;;;17.00;99.90;;;;;;5019687;28;20413;-76
2021/07/26 01:06:30;;;;;;;9.30;5.60;;;17.00;99.90;;;;;;5015675;28;20454;-75
2021/07/26 01:08:59;;;;;;;11.90;5.77;;;16.90;99.90;;;;;;5015987;28;20458;-75
2021/07/26 01:11:25;;;;;;;8.80;5.17;;;16.90;99.90;;;;;;5029639;28;20173;-76
2021/07/26 01:13:51;;;;;;;13.23;5.80;;;16.90;99.90;;;;;;5034953;28;20382;-75
2021/07/26 01:16:29;;;;;;;7.80;5.67;;;16.90;99.90;;;;;;5035401;28;20157;-75
2021/07/26 01:25:41;;;;;;;8.37;5.23;;;16.80;99.90;;;;;;5034765;28;20466;-79
2021/07/26 01:38:13;;;;;;;11.30;5.10;;;16.60;99.90;;;;;;5034222;28;20419;-79
2021/07/26 01:40:53;;;;;;;6.90;5.63;;;16.60;99.90;;;;;;5019689;28;20391;-79
2021/07/26 01:43:39;;;;;;;12.87;6.27;;;16.50;99.90;;;;;;5021834;28;20180;-78
2021/07/26 01:50:10;;;;;;;6.90;5.70;;;16.50;99.90;;;;;;5031304;28;20507;-79
2021/07/26 02:03:04;;;;;;;12.00;4.90;;;16.30;99.90;;;;;;5030200;28;20346;-79
2021/07/26 02:08:52;;;;;;;9.50;6.00;;;16.30;99.90;;;;;;5027504;28;20465;-79
2021/07/26 02:11:34;;;;;;;9.20;5.43;;;16.30;99.90;;;;;;5024647;28;20381;-79
2021/07/26 02:17:22;;;;;;;7.83;5.40;;;16.20;99.90;;;;;;5014229;28;20399;-79
2021/07/26 02:20:28;;;;;;;8.20;5.80;;;16.20;99.90;;;;;;5014609;28;20384;-79
2021/07/26 02:23:10;;;;;;;10.13;6.00;;;16.20;99.90;;;;;;5025434;28;20169;-79
2021/07/26 02:26:16;;;;;;;9.37;6.27;;;16.30;99.90;;;;;;5014310;28;20803;-79
2021/07/26 02:28:53;;;;;;;11.47;6.00;;;16.20;99.90;;;;;;5030049;28;20477;-79
2021/07/26 02:31:35;;;;;;;8.47;5.73;;;16.20;99.90;;;;;;5033881;28;20864;-79
2021/07/26 02:37:22;;;;;;;7.30;4.70;;;16.20;99.90;;;;;;5014080;28;20944;-78
2021/07/26 02:40:05;;;;;;;7.93;5.80;;;16.20;99.90;;;;;;5014004;28;20424;-80
2021/07/26 02:42:31;;;;;;;6.03;5.20;;;16.10;99.90;;;;;;5013897;28;20184;-79
2021/07/26 02:45:05;;;;;;;7.33;5.40;;;16.10;99.90;;;;;;5021034;28;20439;-79
2021/07/26 02:48:16;;;;;;;7.30;5.40;;;16.20;99.90;;;;;;5017006;28;20286;-79
2021/07/26 02:50:42;;;;;;;7.57;6.07;;;16.20;99.90;;;;;;5013957;28;20388;-76
2021/07/26 02:53:07;;;;;;;14.30;5.77;;;16.10;99.90;;;;;;5019410;28;20405;-75
2021/07/26 02:55:33;;;;;;;25.50;5.83;;;16.10;99.90;;;;;;5025398;28;20258;-75
2021/07/26 02:58:10;;;;;;;9.50;5.93;;;16.10;99.90;;;;;;5024715;28;20176;-75
2021/07/26 03:00:41;;;;;;;8.13;5.67;;;16.10;99.90;;;;;;5029226;28;20265;-75
2021/07/26 03:03:40;;;;;;;8.77;5.50;;;16.10;99.90;;;;;;5031793;28;20378;-76
2021/07/26 03:09:28;;;;;;;11.27;5.90;;;16.00;99.90;;;;;;5036719;28;20398;-79
2021/07/26 03:15:15;;;;;;;9.30;6.13;;;16.00;99.90;;;;;;5017868;28;20211;-79
2021/07/26 03:21:03;;;;;;;8.10;5.83;;;15.90;99.90;;;;;;5028571;28;20250;-76
2021/07/26 03:23:30;;;;;;;8.53;6.00;;;15.90;99.90;;;;;;5021239;28;20469;-76
2021/07/26 03:25:59;;;;;;;9.27;6.20;;;15.90;99.90;;;;;;5017785;28;20423;-75
2021/07/26 03:28:28;;;;;;;16.60;6.47;;;15.90;99.90;;;;;;5017673;28;20464;-75
2021/07/26 03:30:54;;;;;;;12.40;6.73;;;15.90;99.90;;;;;;5017673;28;20867;-75
2021/07/26 03:33:35;;;;;;;10.53;6.03;;;15.90;99.90;;;;;;5020238;28;20423;-76
2021/07/26 03:36:00;;;;;;;11.60;5.73;;;15.90;99.90;;;;;;5036873;28;20183;-75
2021/07/26 03:38:26;;;;;;;9.40;6.70;;;15.90;99.90;;;;;;5036808;28;20430;-75
2021/07/26 03:40:52;;;;;;;6.77;5.40;;;15.90;99.90;;;;;;5036713;28;20177;-76
2021/07/26 03:43:19;;;;;;;11.10;6.10;;;;;;;;;;5035052;28;20164;-76
2021/07/26 03:45:52;;;;;;;9.20;6.27;;;15.80;99.90;;;;;;5022601;28;20757;-79
2021/07/26 03:49:04;;;;;;;7.50;5.97;;;15.80;99.90;;;;;;5031848;28;20468;-79
2021/07/26 03:51:58;;;;;;;6.87;5.40;;;15.80;99.90;;;;;;5031075;28;20419;-79
2021/07/26 03:54:24;;;;;;;9.23;5.33;;;15.80;99.90;;;;;;5017964;28;20412;-80
2021/07/26 03:56:49;;;;;;;7.27;5.43;;;15.80;99.90;;;;;;5016686;28;20370;-79
2021/07/26 03:59:15;;;;;;;11.40;5.67;;;15.80;99.90;;;;;;5015176;28;20737;-79
2021/07/26 04:01:46;;;;;;;7.90;5.57;;;15.80;99.90;;;;;;5033837;28;20234;-79
2021/07/26 04:04:19;;;;;;;9.30;5.90;;;15.80;99.90;;;;;;5025459;28;20625;-78
2021/07/26 04:06:50;;;;;;;9.20;5.57;;;15.80;99.90;;;;;;5029765;28;20452;-78
2021/07/26 04:09:17;;;;;;;8.87;5.60;;;15.90;99.90;;;;;;5018823;28;20388;-78
2021/07/26 04:11:44;;;;;;;9.03;5.47;;;15.90;99.90;;;;;;5036435;28;20474;-78
2021/07/26 04:14:26;;;;;;;13.20;6.20;;;16.00;99.90;;;;;;5019451;28;20391;-78
2021/07/26 04:17:10;;;;;;;19.20;5.90;;;16.00;99.90;;;;;;5016845;28;20366;-78
2021/07/26 04:19:46;;;;;;;16.30;6.73;;;16.00;99.90;;;;;;5020495;28;20495;-78
2021/07/26 04:25:34;;;;;;;7.30;5.00;;;16.10;99.90;;;;;;5027440;28;20485;-76
2021/07/26 04:31:21;;;;;;;15.70;5.93;;;16.30;99.90;;;;;;5036263;28;20299;-77
2021/07/26 04:34:11;;;;;;;15.07;5.80;;;16.40;99.90;;;;;;5034700;28;20447;-77
2021/07/26 04:36:53;;;;;;;11.27;5.30;;;16.50;99.90;;;;;;5033805;28;20169;-77
2021/07/26 04:39:22;;;;;;;11.40;5.83;;;16.50;99.90;;;;;;5035902;28;20450;-77
2021/07/26 04:41:52;;;;;;;11.33;6.73;;;16.60;99.90;;;;;;5035882;28;20801;-78
2021/07/26 04:48:10;;;;;;;9.37;6.17;;;16.80;99.90;;;;;;5033099;28;20446;-78
2021/07/26 04:50:36;;;;;;;11.03;7.10;;;16.80;99.90;;;;;;5022056;28;20390;-76
2021/07/26 04:53:01;;;;;;;20.53;9.00;;;16.90;99.90;;;;;;5034508;28;20394;-76
2021/07/26 04:55:35;;;;;;;11.63;7.63;;;17.00;99.90;;;;;;5033900;28;20176;-76
2021/07/26 04:58:34;;;;;;;11.13;7.40;;;17.10;99.90;;;;;;5035683;28;20688;-76
2021/07/26 05:01:17;;;;;;;8.73;6.27;;;;;;;;;;5018088;28;20425;-76
2021/07/26 05:03:52;;;;;;;14.40;6.90;;;17.30;99.90;;;;;;5027895;28;20393;-76
2021/07/26 05:06:34;;;;;;;13.10;6.37;;;17.30;99.90;;;;;;5028703;28;20875;-76
2021/07/26 05:09:00;;;;;;;9.30;5.87;;;17.30;99.90;;;;;;5015779;28;20916;-76
2021/07/26 05:11:29;;;;;;;9.40;5.90;;;17.40;99.90;;;;;;5024864;28;20379;-76
2021/07/26 05:13:54;;;;;;;8.17;5.43;;;17.50;99.90;;;;;;5027421;28;20630;-76
2021/07/26 05:16:35;;;;;;;10.70;6.50;;;17.40;99.90;;;;;;5019376;28;20424;-76
2021/07/26 05:19:04;;;;;;;11.93;6.40;;;17.60;99.90;;;;;;5019935;28;20177;-76
2021/07/26 05:21:30;;;;;;;12.10;6.27;;;17.60;99.90;;;;;;5031734;28;20378;-76
2021/07/26 05:23:56;;;;;;;9.93;6.93;;;17.70;99.90;;;;;;5015891;28;20416;-76
2021/07/26 05:26:29;;;;;;;9.40;6.37;;;17.80;99.90;;;;;;5015543;28;20169;-76
2021/07/26 05:28:54;;;;;;;13.50;6.93;;;17.90;99.90;;;;;;5015292;28;20611;-76
2021/07/26 05:31:23;;;;;;;13.30;6.77;;;18.00;99.90;;;;;;5014661;28;20379;-76
2021/07/26 05:37:17;;;;;;;12.80;8.13;;;18.10;99.90;;;;;;5020894;28;20483;-76
2021/07/26 05:39:43;;;;;;;11.80;8.00;;;18.30;99.90;;;;;;5029041;28;20945;-76
2021/07/26 05:42:11;;;;;;;11.57;7.90;;;18.40;99.90;;;;;;5029546;28;20403;-76
2021/07/26 05:44:55;;;;;;;12.20;8.70;;;18.40;99.90;;;;;;5027793;28;20182;-76
2021/07/26 05:47:21;;;;;;;13.93;7.80;;;18.60;99.90;;;;;;5028346;28;20458;-76
2021/07/26 05:49:46;;;;;;;17.00;8.97;;;18.60;99.90;;;;;;5026566;28;20388;-76
2021/07/26 05:52:13;;;;;;;13.90;8.63;;;18.70;99.90;;;;;;5034366;28;20171;-76
2021/07/26 05:55:10;;;;;;;11.90;8.23;;;19.00;99.90;;;;;;5029895;28;20370;-76
2021/07/26 05:57:47;;;;;;;10.43;7.23;;;19.00;99.90;;;;;;5015154;28;20414;-76
2021/07/26 06:00:24;;;;;;;14.00;8.03;;;19.20;99.90;;;;;;5025250;28;20446;-76
2021/07/26 06:02:50;;;;;;;12.83;8.20;;;19.20;99.90;;;;;;5032419;28;20404;-76
2021/07/26 06:05:16;;;;;;;15.47;7.70;;;19.40;99.90;;;;;;5032276;28;20386;-76
2021/07/26 06:07:43;;;;;;;9.40;7.27;;;19.40;99.90;;;;;;5033836;28;20436;-77
2021/07/26 06:10:09;;;;;;;11.03;7.37;;;19.60;99.90;;;;;;5023019;28;20676;-76
2021/07/26 06:12:35;;;;;;;13.63;7.90;;;19.60;99.90;;;;;;5017404;28;20765;-76
2021/07/26 06:15:00;;;;;;;12.30;7.40;;;19.70;99.90;;;;;;5013825;28;20396;-76
2021/07/26 06:17:26;;;;;;;10.40;6.47;;;19.80;99.90;;;;;;5023216;28;20195;-76
2021/07/26 06:19:52;;;;;;;9.67;6.60;;;19.90;99.90;;;;;;5032395;28;20172;-76
2021/07/26 06:22:17;;;;;;;10.00;7.30;;;20.00;99.90;;;;;;5023611;28;20169;-76
2021/07/26 06:24:43;;;;;;;14.40;7.03;;;20.10;99.90;;;;;;5012186;28;20185;-76
2021/07/26 06:27:09;;;;;;;10.50;6.47;;;20.10;99.90;;;;;;5013404;28;20189;-76
2021/07/26 06:29:36;;;;;;;10.37;6.57;;;20.30;99.90;;;;;;5024180;28;20165;-76
2021/07/26 06:32:02;;;;;;;11.30;6.67;;;20.30;99.90;;;;;;5031179;28;20176;-76
2021/07/26 06:34:28;;;;;;;10.03;6.23;;;20.30;99.90;;;;;;5024164;28;20382;-76
2021/07/26 06:36:54;;;;;;;9.53;6.53;;;20.40;99.90;;;;;;5013753;28;20459;-78
2021/07/26 06:39:19;;;;;;;9.50;6.33;;;20.40;99.90;;;;;;5025337;28;20443;-78
2021/07/26 06:41:45;;;;;;;8.00;6.00;;;20.40;99.90;;;;;;5032354;28;20282;-78
2021/07/26 06:44:10;;;;;;;8.07;5.43;;;20.50;99.90;;;;;;5021694;28;20176;-78
2021/07/26 06:46:41;;;;;;;10.30;6.00;;;20.50;99.90;;;;;;5020898;28;20199;-78
2021/07/26 06:49:06;;;;;;;9.77;5.40;;;20.60;99.90;;;;;;5032771;28;20161;-78
2021/07/26 06:51:32;;;;;;;10.10;6.00;;;20.60;99.90;;;;;;5032573;28;20411;-77
2021/07/26 06:53:57;;;;;;;11.90;6.10;;;20.60;99.90;;;;;;5032923;28;20164;-77
2021/07/26 06:56:28;;;;;;;9.33;5.40;;;20.70;99.90;;;;;;5023178;28;20169;-77
2021/07/26 06:58:54;;;;;;;7.20;5.50;;;20.90;99.90;;;;;;5013425;28;20243;-76
2021/07/26 07:01:20;;;;;;;10.63;5.77;;;20.90;99.90;;;;;;5012983;28;20402;-76
2021/07/26 07:03:46;;;;;;;9.40;5.50;;;21.10;99.90;;;;;;5012836;28;20519;-76
2021/07/26 07:06:17;;;;;;;8.47;5.83;;;21.60;99.90;;;;;;5019895;28;20670;-76
2021/07/26 07:08:43;;;;;;;13.53;5.10;;;21.70;99.90;;;;;;5025138;28;20424;-76
2021/07/26 07:11:12;;;;;;;8.40;5.50;;;21.80;99.90;;;;;;5015570;28;20418;-76
2021/07/26 07:13:39;;;;;;;6.70;4.30;;;22.00;99.90;;;;;;5026728;28;20438;-76
2021/07/26 07:16:16;;;;;;;5.93;4.67;;;22.00;99.90;;;;;;5032406;28;20403;-76
2021/07/26 07:18:42;;;;;;;7.17;5.00;;;22.20;99.90;;;;;;5024676;28;20493;-76
2021/07/26 07:21:25;;;;;;;11.60;4.10;;;22.30;99.90;;;;;;5014192;28;20535;-78
2021/07/26 07:23:52;;;;;;;4.70;3.80;;;22.40;99.90;;;;;;5023888;28;20652;-78
2021/07/26 07:26:23;;;;;;;5.97;3.60;;;22.40;99.90;;;;;;5019353;28;20418;-78
2021/07/26 07:28:49;;;;;;;8.87;3.70;;;22.50;99.90;;;;;;5021253;28;20429;-78
2021/07/26 07:31:19;;;;;;;10.60;4.27;;;22.60;99.90;;;;;;5032639;28;20490;-79
2021/07/26 07:33:45;;;;;;;6.70;4.27;;;22.60;99.90;;;;;;5017127;28;20768;-78
2021/07/26 07:36:13;;;;;;;7.63;4.30;;;22.60;99.90;;;;;;5024147;28;20930;-78
2021/07/26 07:38:45;;;;;;;9.63;4.43;;;22.60;99.90;;;;;;5032809;28;20417;-78
2021/07/26 07:41:14;;;;;;;5.57;3.87;;;22.80;99.90;;;;;;5018935;28;20517;-78
2021/07/26 07:43:40;;;;;;;6.30;3.70;;;22.80;99.90;;;;;;5012505;28;20478;-78
2021/07/26 07:46:06;;;;;;;4.50;3.60;;;22.90;99.90;;;;;;5016639;28;20440;-78
2021/07/26 07:48:38;;;;;;;6.20;3.93;;;22.90;99.90;;;;;;5022488;28;20454;-78
2021/07/26 07:51:07;;;;;;;7.40;3.80;;;23.00;99.90;;;;;;5012562;28;20426;-78
2021/07/26 07:53:34;;;;;;;6.60;4.00;;;23.00;99.90;;;;;;5012956;28;20399;-78
2021/07/26 07:56:01;;;;;;;6.40;4.17;;;23.10;99.90;;;;;;5028719;28;20903;-78
2021/07/26 07:58:27;;;;;;;7.07;4.07;;;23.10;99.90;;;;;;5036030;28;20395;-78
2021/07/26 08:00:56;;;;;;;6.77;3.70;;;23.30;99.90;;;;;;5035821;28;20441;-78
2021/07/26 08:03:22;;;;;;;12.70;4.10;;;23.30;99.90;;;;;;5036043;28;20593;-80
2021/07/26 08:05:48;;;;;;;7.63;4.20;;;23.40;99.90;;;;;;5035848;28;20432;-81
2021/07/26 08:08:14;;;;;;;8.50;3.80;;;23.40;99.90;;;;;;5036106;28;20189;-75
2021/07/26 08:10:40;;;;;;;9.33;3.87;;;23.40;99.90;;;;;;5033031;28;20928;-76
2021/07/26 08:13:06;;;;;;;5.57;4.27;;;23.60;99.90;;;;;;5030530;28;20531;-75
2021/07/26 08:15:31;;;;;;;5.40;3.70;;;23.60;99.90;;;;;;5033255;28;20651;-75
2021/07/26 08:17:57;;;;;;;5.77;3.80;;;23.70;99.90;;;;;;5034686;28;20219;-75
2021/07/26 08:20:22;;;;;;;6.83;4.13;;;23.70;99.90;;;;;;5034001;28;20667;-76
2021/07/26 08:22:48;;;;;;;10.63;3.83;;;23.70;99.90;;;;;;5035842;28;20653;-76
2021/07/26 08:25:14;;;;;;;5.53;3.77;;;23.70;99.90;;;;;;5019841;28;20187;-76
2021/07/26 08:28:06;;;;;;;4.63;3.70;;;23.90;99.90;;;;;;5014901;28;20203;-76
2021/07/26 08:30:34;;;;;;;3.97;3.40;;;24.00;99.90;;;;;;5011302;28;20395;-76
2021/07/26 08:33:01;;;;;;;12.10;3.50;;;24.00;99.90;;;;;;5017406;28;20548;-76
2021/07/26 08:35:27;;;;;;;11.00;3.40;;;;;;;;;;5035210;28;20414;-76
2021/07/26 08:37:53;;;;;;;4.77;3.40;;;24.30;99.90;;;;;;5035725;28;20921;-75
2021/07/26 08:40:21;;;;;;;6.07;3.47;;;24.30;99.90;;;;;;5035308;28;20500;-75
2021/07/26 08:42:47;;;;;;;5.20;3.67;;;24.50;99.90;;;;;;5035160;28;20515;-81
2021/07/26 08:45:12;;;;;;;7.00;3.50;;;24.50;99.90;;;;;;5034942;28;20961;-83
2021/07/26 08:47:43;;;;;;;6.43;3.53;;;24.60;99.90;;;;;;5035134;28;20614;-83
2021/07/26 08:50:11;;;;;;;7.57;4.00;;;24.60;99.90;;;;;;5035333;28;20163;-82
2021/07/26 08:52:52;;;;;;;6.33;4.00;;;24.60;99.90;;;;;;5034997;28;20405;-81
2021/07/26 08:55:21;;;;;;;7.20;3.70;;;24.90;99.90;;;;;;5035033;28;20528;-82
2021/07/26 08:57:48;;;;;;;4.57;2.90;;;25.00;99.90;;;;;;5034909;28;20459;-84
2021/07/26 09:00:16;;;;;;;10.30;2.90;;;25.20;99.90;;;;;;5035005;28;20456;-82
2021/07/26 09:02:42;;;;;;;4.40;3.17;;;25.20;99.90;;;;;;5034813;28;20407;-82
2021/07/26 09:05:10;;;;;;;12.03;3.37;;;25.40;99.90;;;;;;5034085;28;20424;-84
2021/07/26 09:07:43;;;;;;;3.40;3.10;;;25.60;99.90;;;;;;5033968;28;20452;-79
2021/07/26 09:10:12;;;;;;;15.37;3.37;;;25.90;99.90;;;;;;5034654;28;20415;-86
2021/07/26 09:12:40;;;;;;;7.10;3.67;;;25.80;99.90;;;;;;5034406;28;20464;-82
2021/07/26 09:15:27;;;;;;;5.83;3.20;;;25.80;99.90;;;;;;5034728;28;20432;-82
2021/07/26 09:17:54;;;;;;;9.27;3.40;;;25.80;99.90;;;;;;4954374;29;20434;-83
2021/07/26 09:20:20;;;;;;;5.30;3.10;;;25.70;99.90;;;;;;4954222;29;20431;-79
2021/07/26 09:22:47;;;;;;;3.17;2.87;;;25.70;99.90;;;;;;4954084;29;20511;-75
2021/07/26 09:25:21;;;;;;;2.80;2.60;;;25.60;99.90;;;;;;4948468;29;20457;-76
2021/07/26 09:27:59;;;;;;;3.33;2.80;;;25.50;99.90;;;;;;4953608;29;20529;-76
2021/07/26 09:30:27;;;;;;;4.80;3.13;;;25.50;99.90;;;;;;4954081;29;20434;-74
2021/07/26 09:32:52;;;;;;;2.83;2.63;;;25.70;99.90;;;;;;4953508;29;20425;-74
2021/07/26 09:35:26;;;;;;;3.40;2.87;;;25.80;99.90;;;;;;4953700;29;20431;-74
2021/07/26 09:38:02;;;;;;;5.80;3.00;;;25.80;99.90;;;;;;4953930;29;20261;-78
2021/07/26 09:40:35;;;;;;;6.00;2.90;;;25.90;99.90;;;;;;4953762;29;20855;-80
2021/07/26 09:43:20;;;;;;;4.40;2.70;;;26.00;99.90;;;;;;4953823;29;20476;-80
2021/07/26 09:45:48;;;;;;;2.63;2.40;;;26.30;99.90;;;;;;4945585;29;20521;-83
2021/07/26 09:48:15;;;;;;;3.43;2.40;;;26.30;99.90;;;;;;4945500;29;20476;-84
2021/07/26 09:50:43;;;;;;;5.83;2.20;;;26.50;99.90;;;;;;4943652;29;21059;-80
2021/07/26 09:53:16;;;;;;;2.80;2.23;;;26.60;99.90;;;;;;4948128;29;20460;-83
2021/07/26 09:55:47;;;;;;;2.13;1.90;;;26.70;99.90;;;;;;5010054;28;20439;-84
2021/07/26 09:58:15;;;;;;;3.37;2.10;;;26.80;99.90;;;;;;5021962;28;20422;-84
2021/07/26 10:00:42;;;;;;;8.60;3.50;;;27.00;99.90;;;;;;5024282;28;20455;-83
2021/07/26 10:03:11;;;;;;;2.30;2.10;;;27.20;99.90;;;;;;5033691;28;20464;-79
2021/07/26 10:05:39;;;;;;;8.50;2.63;;;27.30;99.90;;;;;;5033598;28;20423;-78
2021/07/26 10:08:06;;;;;;;2.50;2.30;;;27.30;99.90;;;;;;5033909;28;20457;-78
2021/07/26 10:10:37;;;;;;;2.33;2.13;;;27.50;99.90;;;;;;5033521;28;20400;-83
2021/07/26 10:13:04;;;;;;;4.60;2.00;;;27.50;99.90;;;;;;5017015;28;20420;-84
2021/07/26 10:15:32;;;;;;;7.70;2.30;;;27.70;99.90;;;;;;5021074;28;20448;-82
2021/07/26 10:17:58;;;;;;;2.50;2.30;;;27.90;99.90;;;;;;5020156;28;20449;-84
2021/07/26 10:20:39;;;;;;;2.80;2.57;;;28.10;99.90;;;;;;5024143;28;20458;-84
2021/07/26 10:23:07;;;;;;;7.03;2.57;;;28.10;99.90;;;;;;5013952;28;20488;-76
2021/07/26 10:25:41;;;;;;;3.70;2.20;;;28.30;99.90;;;;;;5013488;28;20427;-75
2021/07/26 10:28:11;;;;;;;5.50;2.40;;;28.40;99.90;;;;;;5013439;28;20463;-75
2021/07/26 10:30:38;;;;;;;5.77;2.80;;;28.50;99.90;;;;;;5015585;28;20903;-76
2021/07/26 10:33:05;;;;;;;3.30;2.13;;;28.70;99.90;;;;;;5026970;28;20436;-76
2021/07/26 10:35:37;;;;;;;5.30;2.53;;;28.90;99.90;;;;;;5033157;28;20399;-76
2021/07/26 10:38:08;;;;;;;6.93;3.00;;;29.00;99.90;;;;;;5033383;28;20461;-81
2021/07/26 10:40:42;;;;;;;2.30;2.10;;;29.20;99.90;;;;;;5026541;28;20919;-84
2021/07/26 10:43:16;;;;;;;3.20;2.17;;;29.20;99.90;;;;;;5022674;28;20425;-74
2021/07/26 10:45:54;;;;;;;9.47;2.10;;;29.20;99.90;;;;;;5023506;28;20413;-75
2021/07/26 10:48:22;;;;;;;4.30;2.43;;;29.20;99.90;;;;;;5032853;28;20445;-76
2021/07/26 10:50:49;;;;;;;3.83;2.00;;;29.30;99.90;;;;;;5032967;28;20396;-79
2021/07/26 10:53:36;;;;;;;2.90;2.70;;;28.90;99.90;;;;;;5033058;28;20918;-80
2021/07/26 10:56:09;;;;;;;4.67;2.57;;;28.70;99.90;;;;;;5032891;28;20398;-78
2021/07/26 10:58:38;;;;;;;3.20;2.43;;;28.70;99.90;;;;;;5031421;28;20448;-78
2021/07/26 11:01:22;;;;;;;5.83;2.43;;;28.80;99.90;;;;;;5032770;28;20420;-75
2021/07/26 11:04:29;;;;;;;2.90;2.70;;;28.90;99.90;;;;;;5018411;28;20421;-76
2021/07/26 11:07:03;;;;;;;9.27;2.53;;;28.90;99.90;;;;;;5025285;28;20466;-75
2021/07/26 11:09:34;;;;;;;2.77;2.20;;;29.00;99.90;;;;;;5019790;28;20422;-75
2021/07/26 11:12:02;;;;;;;3.40;2.07;;;28.60;99.90;;;;;;5024935;28;20443;-79
2021/07/26 11:14:27;;;;;;;2.83;2.60;;;28.50;99.90;;;;;;5028006;28;20488;-79
2021/07/26 11:16:55;;;;;;;3.63;2.33;;;;;;;;;;5032845;28;20435;-79
2021/07/26 11:19:40;;;;;;;5.53;2.40;;;28.00;99.90;;;;;;5032109;28;20170;-79
2021/07/26 11:22:25;;;;;;;3.00;2.47;;;28.00;99.90;;;;;;5013840;28;20896;-79
2021/07/26 11:24:55;;;;;;;2.37;2.17;;;28.10;99.90;;;;;;4952280;28;20966;-82
2021/07/26 11:27:32;;;;;;;4.10;2.03;;;28.20;99.90;;;;;;4951706;29;20473;-82
2021/07/26 11:29:58;;;;;;;3.10;2.17;;;28.30;99.90;;;;;;4954271;28;20448;-82
2021/07/26 11:32:25;;;;;;;3.70;2.33;;;28.20;99.90;;;;;;4955551;29;21148;-82
2021/07/26 11:34:55;;;;;;;5.23;2.50;;;28.10;99.90;;;;;;4956250;28;20410;-82
2021/07/26 11:37:39;;;;;;;2.57;2.33;;;28.10;99.90;;;;;;4954600;28;20512;-84
2021/07/26 11:40:09;;;;;;;2.50;2.20;;;28.50;99.90;;;;;;4957003;28;20516;-76
2021/07/26 11:42:39;;;;;;;2.07;1.90;;;28.60;99.90;;;;;;4955379;29;20437;-76
2021/07/26 11:45:14;;;;;;;2.70;2.50;;;28.90;99.90;;;;;;4961150;28;20527;-76
2021/07/26 11:47:42;;;;;;;11.40;2.57;;;29.10;99.90;;;;;;4955869;28;20468;-79
2021/07/26 11:50:13;;;;;;;4.07;2.00;;;28.90;99.50;;;;;;4955659;28;20430;-79
2021/07/26 11:52:52;;;;;;;2.73;2.20;;;28.50;99.90;;;;;;4955177;29;20437;-77
2021/07/26 11:55:18;;;;;;;2.53;2.33;;;;;;;;;;4955586;29;20802;-77
2021/07/26 11:58:06;;;;;;;10.83;1.87;;;28.30;99.70;;;;;;4954907;29;20863;-78
2021/07/26 12:00:34;;;;;;;2.57;2.37;;;28.00;99.90;;;;;;4953355;29;20466;-77
2021/07/26 12:03:01;;;;;;;2.83;2.30;;;28.00;99.90;;;;;;5010963;28;20444;-77
2021/07/26 12:05:29;;;;;;;2.60;2.40;;;27.60;99.90;;;;;;5030778;28;20418;-77
2021/07/26 12:07:55;;;;;;;2.70;2.03;;;27.40;99.90;;;;;;5025015;28;20525;-77
2021/07/26 12:10:35;;;;;;;1.53;1.43;;;27.40;99.90;;;;;;5028600;28;20472;-83
2021/07/26 12:13:16;;;;;;;2.27;1.97;;;27.30;99.90;;;;;;5023420;28;20911;-83
2021/07/26 12:15:46;;;;;;;2.47;2.20;;;27.20;99.90;;;;;;5016079;28;20463;-83
2021/07/26 12:18:14;;;;;;;5.20;2.60;;;26.90;99.90;;;;;;5015790;28;20419;-83
2021/07/26 12:20:52;;;;;;;1.90;1.80;;;26.90;99.90;;;;;;5014625;28;20461;-83
2021/07/26 12:23:24;;;;;;;6.13;2.60;;;26.70;99.90;;;;;;5021691;28;20425;-83
2021/07/26 12:26:25;;;;;;;3.60;2.50;;;26.50;99.90;;;;;;5019174;28;20433;-77
2021/07/26 12:29:09;;;;;;;4.50;2.73;;;26.50;99.90;;;;;;5010724;28;20447;-77
2021/07/26 12:32:13;;;;;;;3.80;2.60;;;26.20;99.90;;;;;;4993675;28;20405;-79
2021/07/26 12:34:38;;;;;;;8.70;2.93;;;26.10;99.90;;;;;;4973613;28;20428;-78
2021/07/26 12:37:28;;;;;;;2.80;2.50;;;26.10;99.90;;;;;;4965922;28;20453;-78
2021/07/26 12:40:11;;;;;;;3.00;2.70;;;26.20;99.90;;;;;;4956480;28;20339;-77
2021/07/26 12:42:37;;;;;;;2.70;2.50;;;26.20;99.90;;;;;;4957739;28;20955;-76
2021/07/26 12:45:25;;;;;;;2.87;2.67;;;26.20;99.90;;;;;;4973490;28;20453;-76
2021/07/26 12:47:53;;;;;;;7.30;2.83;;;26.70;99.90;;;;;;4973561;28;20267;-77
2021/07/26 12:50:19;;;;;;;10.47;2.53;;;26.70;99.90;;;;;;4973916;28;20460;-79
2021/07/26 12:52:58;;;;;;;5.03;3.10;;;26.90;99.90;;;;;;4973706;28;20911;-80
2021/07/26 12:55:24;;;;;;;3.10;2.80;;;27.50;99.90;;;;;;4974070;28;20189;-80
2021/07/26 13:01:17;;;;;;;14.57;2.93;;;27.30;99.90;;;;;;4936912;28;1082398;-80
2021/07/26 13:04:34;;;;;;;4.47;2.70;;;27.60;99.90;;;;;;4972979;28;20205;-79
2021/07/26 13:07:34;;;;;;;2.87;2.63;;;27.80;99.90;;;;;;4945649;28;20479;-80
2021/07/26 13:10:05;;;;;;;4.40;2.60;;;28.20;99.90;;;;;;5032574;28;20908;-75
2021/07/26 13:12:41;;;;;;;3.27;2.33;;;28.40;99.90;;;;;;5035182;28;20866;-76
2021/07/26 13:15:28;;;;;;;3.83;2.77;;;28.40;99.90;;;;;;5017130;28;20424;-80
2021/07/26 13:17:59;;;;;;;2.80;2.50;;;28.30;99.90;;;;;;5015586;28;20396;-75
2021/07/26 13:20:25;;;;;;;5.30;2.60;;;;;;;;;;5025441;28;20926;-76
2021/07/26 13:22:53;;;;;;;4.80;2.30;;;28.40;99.90;;;;;;5024148;28;20429;-77
2021/07/26 13:29:10;;;;;;;3.07;2.70;;;28.30;99.90;;;;;;5014972;28;20456;-79
2021/07/26 13:32:16;;;;;;;3.17;2.57;;;28.20;99.90;;;;;;5028654;28;20417;-79
2021/07/26 13:34:42;;;;;;;4.47;3.17;;;;;;;;;;5034849;28;20401;-80
2021/07/26 13:43:51;;;;;;;2.63;2.40;;;28.40;99.90;;;;;;5014983;28;20379;-80
2021/07/26 13:49:39;;;;;;;4.10;2.70;;;28.50;99.90;;;;;;5016871;28;20199;-76
2021/07/26 13:55:27;;;;;;;2.50;2.30;;;28.70;99.90;;;;;;5033028;28;20217;-75
2021/07/26 13:57:53;;;;;;;2.47;2.27;;;28.80;99.90;;;;;;5024154;28;20420;-75
2021/07/26 14:00:19;;;;;;;4.50;2.60;;;29.00;99.90;;;;;;5014674;28;20260;-76
2021/07/26 14:02:47;;;;;;;3.63;2.37;;;29.30;99.90;;;;;;5020384;28;20192;-75
2021/07/26 14:05:13;;;;;;;2.70;2.50;;;29.40;99.90;;;;;;5033858;28;20457;-74
2021/07/26 14:07:39;;;;;;;4.00;2.53;;;29.50;99.90;;;;;;5026833;28;20471;-75
2021/07/26 14:10:06;;;;;;;2.93;2.07;;;29.50;99.90;;;;;;5028933;28;20462;-78
2021/07/26 14:12:32;;;;;;;3.53;2.30;;;29.60;99.90;;;;;;5019157;28;20533;-75
2021/07/26 14:14:57;;;;;;;11.33;2.70;;;29.70;99.90;;;;;;5022053;28;20861;-77
2021/07/26 14:17:23;;;;;;;3.00;2.57;;;29.90;99.90;;;;;;5020254;28;20854;-76
2021/07/26 14:19:49;;;;;;;3.53;2.20;;;30.00;99.90;;;;;;5028583;28;20588;-76
2021/07/26 14:22:18;;;;;;;2.70;2.30;;;30.00;99.90;;;;;;5015545;28;20183;-76
2021/07/26 14:24:44;;;;;;;4.43;2.40;;;30.30;99.90;;;;;;5024103;28;20222;-76
2021/07/26 14:30:32;;;;;;;3.10;2.50;;;30.60;99.90;;;;;;5028922;28;20946;-79
2021/07/26 14:33:40;;;;;;;3.40;2.63;;;30.60;98.40;;;;;;5027794;28;20427;-79
2021/07/26 14:36:06;;;;;;;2.47;2.30;;;30.60;99.50;;;;;;5017726;28;20177;-79
2021/07/26 14:38:32;;;;;;;3.40;3.10;;;30.60;99.90;;;;;;5032476;28;20776;-79
2021/07/26 14:40:57;;;;;;;4.20;2.60;;;30.60;99.90;;;;;;5033996;28;20199;-79
2021/07/26 14:43:53;;;;;;;2.27;2.07;;;30.30;99.90;;;;;;5023167;28;20222;-79
2021/07/26 14:46:19;;;;;;;4.20;2.60;;;30.10;99.90;;;;;;5022200;28;20179;-80
2021/07/26 14:48:45;;;;;;;2.47;2.27;;;30.00;99.90;;;;;;5030264;28;20486;-81
2021/07/26 14:54:35;;;;;;;2.67;2.00;;;30.00;97.70;;;;;;5026621;28;20950;-81
2021/07/26 14:57:01;;;;;;;2.60;1.90;;;30.00;99.90;;;;;;5033368;28;20433;-75